sensor_id;sensor_type;location;lat;lon;timestamp;P1;durP1;ratioP1;P2;durP2;ratioP2
73168;SDS011;61379;59.732;30.468;2023-02-15T00:00:28;7.93;;;7.22;;
73168;SDS011;61379;59.732;30.468;2023-02-15T00:02:54;7.05;;;6.35;;
73168;SDS011;61379;59.732;30.468;2023-02-15T00:05:21;7.15;;;6.55;;
73168;SDS011;61379;59.732;30.468;2023-02-15T00:07:48;9.13;;;7.03;;
73168;SDS011;61379;59.732;30.468;2023-02-15T00:10:15;7.20;;;6.47;;
73168;SDS011;61379;59.732;30.468;2023-02-15T00:12:42;7.28;;;6.70;;
73168;SDS011;61379;59.732;30.468;2023-02-15T00:15:09;7.22;;;6.47;;
73168;SDS011;61379;59.732;30.468;2023-02-15T00:17:39;9.75;;;7.05;;
73168;SDS011;61379;59.732;30.468;2023-02-15T00:20:06;7.63;;;6.82;;
73168;SDS011;61379;59.732;30.468;2023-02-15T00:22:33;7.70;;;7.00;;
73168;SDS011;61379;59.732;30.468;2023-02-15T00:24:59;7.60;;;6.78;;
73168;SDS011;61379;59.732;30.468;2023-02-15T00:27:27;7.75;;;6.95;;
73168;SDS011;61379;59.732;30.468;2023-02-15T00:29:54;7.03;;;6.50;;
73168;SDS011;61379;59.732;30.468;2023-02-15T00:32:21;12.88;;;6.90;;
73168;SDS011;61379;59.732;30.468;2023-02-15T00:34:49;7.53;;;6.55;;
73168;SDS011;61379;59.732;30.468;2023-02-15T00:37:16;7.45;;;6.68;;
73168;SDS011;61379;59.732;30.468;2023-02-15T00:39:43;9.85;;;6.90;;
73168;SDS011;61379;59.732;30.468;2023-02-15T00:42:09;9.77;;;6.65;;
73168;SDS011;61379;59.732;30.468;2023-02-15T00:44:36;7.95;;;6.65;;
73168;SDS011;61379;59.732;30.468;2023-02-15T00:47:03;7.68;;;6.88;;
73168;SDS011;61379;59.732;30.468;2023-02-15T00:49:30;7.45;;;6.65;;
73168;SDS011;61379;59.732;30.468;2023-02-15T00:51:58;7.75;;;7.00;;
73168;SDS011;61379;59.732;30.468;2023-02-15T00:54:25;7.53;;;6.88;;
73168;SDS011;61379;59.732;30.468;2023-02-15T00:56:51;8.38;;;7.57;;
73168;SDS011;61379;59.732;30.468;2023-02-15T00:59:18;7.75;;;7.15;;
73168;SDS011;61379;59.732;30.468;2023-02-15T01:01:45;8.90;;;7.25;;
73168;SDS011;61379;59.732;30.468;2023-02-15T01:04:12;8.10;;;7.30;;
73168;SDS011;61379;59.732;30.468;2023-02-15T01:06:39;10.32;;;7.45;;
73168;SDS011;61379;59.732;30.468;2023-02-15T01:09:07;7.25;;;6.65;;
73168;SDS011;61379;59.732;30.468;2023-02-15T01:11:34;8.30;;;7.70;;
73168;SDS011;61379;59.732;30.468;2023-02-15T01:14:00;9.80;;;7.50;;
73168;SDS011;61379;59.732;30.468;2023-02-15T01:16:28;9.02;;;7.45;;
73168;SDS011;61379;59.732;30.468;2023-02-15T01:18:55;9.30;;;7.45;;
73168;SDS011;61379;59.732;30.468;2023-02-15T01:21:22;8.90;;;7.80;;
73168;SDS011;61379;59.732;30.468;2023-02-15T01:23:50;8.43;;;7.63;;
73168;SDS011;61379;59.732;30.468;2023-02-15T01:26:18;8.25;;;7.38;;
73168;SDS011;61379;59.732;30.468;2023-02-15T01:28:45;9.10;;;7.45;;
73168;SDS011;61379;59.732;30.468;2023-02-15T01:31:12;8.70;;;7.43;;
73168;SDS011;61379;59.732;30.468;2023-02-15T01:33:40;12.57;;;7.30;;
73168;SDS011;61379;59.732;30.468;2023-02-15T01:36:07;11.60;;;7.38;;
73168;SDS011;61379;59.732;30.468;2023-02-15T01:38:34;7.82;;;6.97;;
73168;SDS011;61379;59.732;30.468;2023-02-15T01:41:01;9.02;;;8.02;;
73168;SDS011;61379;59.732;30.468;2023-02-15T01:43:43;7.93;;;7.22;;
73168;SDS011;61379;59.732;30.468;2023-02-15T01:46:10;8.30;;;6.97;;
73168;SDS011;61379;59.732;30.468;2023-02-15T01:48:39;8.48;;;7.70;;
73168;SDS011;61379;59.732;30.468;2023-02-15T01:51:06;7.90;;;7.10;;
73168;SDS011;61379;59.732;30.468;2023-02-15T01:53:34;8.45;;;7.65;;
73168;SDS011;61379;59.732;30.468;2023-02-15T01:56:04;8.40;;;7.45;;
73168;SDS011;61379;59.732;30.468;2023-02-15T01:58:32;8.05;;;7.30;;
73168;SDS011;61379;59.732;30.468;2023-02-15T02:01:01;8.25;;;7.55;;
73168;SDS011;61379;59.732;30.468;2023-02-15T02:03:35;9.02;;;7.45;;
73168;SDS011;61379;59.732;30.468;2023-02-15T02:06:03;7.63;;;7.05;;
73168;SDS011;61379;59.732;30.468;2023-02-15T02:08:30;7.90;;;7.20;;
73168;SDS011;61379;59.732;30.468;2023-02-15T02:10:58;9.18;;;7.57;;
73168;SDS011;61379;59.732;30.468;2023-02-15T02:13:24;8.35;;;7.28;;
73168;SDS011;61379;59.732;30.468;2023-02-15T02:16:13;8.20;;;7.35;;
73168;SDS011;61379;59.732;30.468;2023-02-15T02:18:44;7.57;;;6.97;;
73168;SDS011;61379;59.732;30.468;2023-02-15T02:24:23;9.50;;;8.25;;
73168;SDS011;61379;59.732;30.468;2023-02-15T02:35:08;8.10;;;7.30;;
73168;SDS011;61379;59.732;30.468;2023-02-15T02:37:37;12.25;;;8.73;;
73168;SDS011;61379;59.732;30.468;2023-02-15T02:40:10;8.27;;;7.53;;
73168;SDS011;61379;59.732;30.468;2023-02-15T02:42:40;8.38;;;7.63;;
73168;SDS011;61379;59.732;30.468;2023-02-15T02:45:08;11.30;;;9.20;;
73168;SDS011;61379;59.732;30.468;2023-02-15T02:47:36;10.65;;;8.70;;
73168;SDS011;61379;59.732;30.468;2023-02-15T02:52:43;10.38;;;8.68;;
73168;SDS011;61379;59.732;30.468;2023-02-15T02:55:11;11.35;;;9.73;;
73168;SDS011;61379;59.732;30.468;2023-02-15T02:57:42;12.63;;;9.80;;
73168;SDS011;61379;59.732;30.468;2023-02-15T03:00:10;10.27;;;8.73;;
73168;SDS011;61379;59.732;30.468;2023-02-15T03:02:38;10.13;;;8.88;;
73168;SDS011;61379;59.732;30.468;2023-02-15T03:05:06;11.00;;;9.35;;
73168;SDS011;61379;59.732;30.468;2023-02-15T03:07:34;10.45;;;9.27;;
73168;SDS011;61379;59.732;30.468;2023-02-15T03:10:03;10.50;;;9.38;;
73168;SDS011;61379;59.732;30.468;2023-02-15T03:12:32;9.07;;;7.78;;
73168;SDS011;61379;59.732;30.468;2023-02-15T03:15:00;12.70;;;8.27;;
73168;SDS011;61379;59.732;30.468;2023-02-15T03:17:29;14.13;;;8.77;;
73168;SDS011;61379;59.732;30.468;2023-02-15T03:19:57;14.18;;;8.35;;
73168;SDS011;61379;59.732;30.468;2023-02-15T03:22:25;9.30;;;8.38;;
73168;SDS011;61379;59.732;30.468;2023-02-15T03:24:55;11.40;;;8.77;;
73168;SDS011;61379;59.732;30.468;2023-02-15T03:27:24;9.43;;;8.52;;
73168;SDS011;61379;59.732;30.468;2023-02-15T03:29:53;9.38;;;8.63;;
73168;SDS011;61379;59.732;30.468;2023-02-15T03:32:20;9.68;;;8.73;;
73168;SDS011;61379;59.732;30.468;2023-02-15T03:34:48;13.13;;;9.05;;
73168;SDS011;61379;59.732;30.468;2023-02-15T03:37:16;11.25;;;8.90;;
73168;SDS011;61379;59.732;30.468;2023-02-15T03:39:47;9.90;;;8.77;;
73168;SDS011;61379;59.732;30.468;2023-02-15T03:42:16;8.90;;;7.97;;
73168;SDS011;61379;59.732;30.468;2023-02-15T03:44:49;8.52;;;7.18;;
73168;SDS011;61379;59.732;30.468;2023-02-15T03:47:18;8.63;;;7.80;;
73168;SDS011;61379;59.732;30.468;2023-02-15T03:49:48;8.95;;;7.72;;
73168;SDS011;61379;59.732;30.468;2023-02-15T03:52:15;10.00;;;7.80;;
73168;SDS011;61379;59.732;30.468;2023-02-15T03:54:41;8.18;;;7.57;;
73168;SDS011;61379;59.732;30.468;2023-02-15T03:57:10;10.48;;;8.38;;
73168;SDS011;61379;59.732;30.468;2023-02-15T03:59:56;8.63;;;7.63;;
73168;SDS011;61379;59.732;30.468;2023-02-15T04:02:42;10.82;;;8.23;;
73168;SDS011;61379;59.732;30.468;2023-02-15T04:05:12;9.02;;;8.23;;
73168;SDS011;61379;59.732;30.468;2023-02-15T04:07:38;11.15;;;8.30;;
73168;SDS011;61379;59.732;30.468;2023-02-15T04:10:06;10.68;;;8.23;;
73168;SDS011;61379;59.732;30.468;2023-02-15T04:12:50;9.63;;;8.07;;
73168;SDS011;61379;59.732;30.468;2023-02-15T04:15:18;10.95;;;7.82;;
73168;SDS011;61379;59.732;30.468;2023-02-15T04:18:02;8.82;;;8.02;;
73168;SDS011;61379;59.732;30.468;2023-02-15T04:20:29;8.25;;;7.68;;
73168;SDS011;61379;59.732;30.468;2023-02-15T04:23:13;8.32;;;7.63;;
73168;SDS011;61379;59.732;30.468;2023-02-15T04:25:57;8.95;;;8.15;;
73168;SDS011;61379;59.732;30.468;2023-02-15T04:28:24;8.43;;;7.63;;
73168;SDS011;61379;59.732;30.468;2023-02-15T04:30:52;10.95;;;8.15;;
73168;SDS011;61379;59.732;30.468;2023-02-15T04:33:19;9.13;;;8.40;;
73168;SDS011;61379;59.732;30.468;2023-02-15T04:35:46;8.20;;;6.55;;
73168;SDS011;61379;59.732;30.468;2023-02-15T04:38:13;7.78;;;6.97;;
73168;SDS011;61379;59.732;30.468;2023-02-15T04:40:39;8.25;;;7.55;;
73168;SDS011;61379;59.732;30.468;2023-02-15T04:43:06;7.78;;;7.18;;
73168;SDS011;61379;59.732;30.468;2023-02-15T04:45:33;8.10;;;7.40;;
73168;SDS011;61379;59.732;30.468;2023-02-15T04:48:01;7.32;;;6.65;;
73168;SDS011;61379;59.732;30.468;2023-02-15T04:50:28;8.50;;;7.30;;
73168;SDS011;61379;59.732;30.468;2023-02-15T04:52:55;8.18;;;7.38;;
73168;SDS011;61379;59.732;30.468;2023-02-15T04:55:22;10.32;;;8.07;;
73168;SDS011;61379;59.732;30.468;2023-02-15T04:57:48;8.60;;;7.80;;
73168;SDS011;61379;59.732;30.468;2023-02-15T05:00:15;7.88;;;7.15;;
73168;SDS011;61379;59.732;30.468;2023-02-15T05:02:42;7.72;;;7.07;;
73168;SDS011;61379;59.732;30.468;2023-02-15T05:05:10;8.77;;;7.90;;
73168;SDS011;61379;59.732;30.468;2023-02-15T05:07:40;10.13;;;8.25;;
73168;SDS011;61379;59.732;30.468;2023-02-15T05:10:07;8.20;;;7.43;;
73168;SDS011;61379;59.732;30.468;2023-02-15T05:12:34;7.65;;;6.93;;
73168;SDS011;61379;59.732;30.468;2023-02-15T05:15:01;8.52;;;7.82;;
73168;SDS011;61379;59.732;30.468;2023-02-15T05:17:29;8.18;;;7.38;;
73168;SDS011;61379;59.732;30.468;2023-02-15T05:19:56;8.60;;;7.78;;
73168;SDS011;61379;59.732;30.468;2023-02-15T05:22:24;8.77;;;8.00;;
73168;SDS011;61379;59.732;30.468;2023-02-15T05:24:51;8.02;;;7.43;;
73168;SDS011;61379;59.732;30.468;2023-02-15T05:27:35;8.95;;;7.63;;
73168;SDS011;61379;59.732;30.468;2023-02-15T05:30:19;8.43;;;7.63;;
73168;SDS011;61379;59.732;30.468;2023-02-15T05:32:46;9.10;;;7.50;;
73168;SDS011;61379;59.732;30.468;2023-02-15T05:35:13;9.60;;;7.28;;
73168;SDS011;61379;59.732;30.468;2023-02-15T05:37:42;8.63;;;7.43;;
73168;SDS011;61379;59.732;30.468;2023-02-15T05:40:09;8.63;;;7.88;;
73168;SDS011;61379;59.732;30.468;2023-02-15T05:42:36;6.95;;;6.35;;
73168;SDS011;61379;59.732;30.468;2023-02-15T05:45:03;9.98;;;7.82;;
73168;SDS011;61379;59.732;30.468;2023-02-15T05:47:30;8.57;;;7.80;;
73168;SDS011;61379;59.732;30.468;2023-02-15T05:49:57;9.15;;;7.47;;
73168;SDS011;61379;59.732;30.468;2023-02-15T05:52:24;11.35;;;9.32;;
73168;SDS011;61379;59.732;30.468;2023-02-15T05:54:52;10.25;;;8.25;;
73168;SDS011;61379;59.732;30.468;2023-02-15T05:57:19;8.90;;;7.45;;
73168;SDS011;61379;59.732;30.468;2023-02-15T05:59:46;7.53;;;6.75;;
73168;SDS011;61379;59.732;30.468;2023-02-15T06:02:13;7.82;;;6.43;;
73168;SDS011;61379;59.732;30.468;2023-02-15T06:04:39;10.32;;;7.18;;
73168;SDS011;61379;59.732;30.468;2023-02-15T06:07:06;8.40;;;7.43;;
73168;SDS011;61379;59.732;30.468;2023-02-15T06:09:33;7.80;;;7.13;;
73168;SDS011;61379;59.732;30.468;2023-02-15T06:12:01;8.07;;;7.13;;
73168;SDS011;61379;59.732;30.468;2023-02-15T06:14:28;9.82;;;7.05;;
73168;SDS011;61379;59.732;30.468;2023-02-15T06:16:55;9.43;;;7.25;;
73168;SDS011;61379;59.732;30.468;2023-02-15T06:19:22;11.35;;;7.85;;
73168;SDS011;61379;59.732;30.468;2023-02-15T06:21:49;10.32;;;7.65;;
73168;SDS011;61379;59.732;30.468;2023-02-15T06:24:15;9.15;;;7.65;;
73168;SDS011;61379;59.732;30.468;2023-02-15T06:26:42;9.70;;;8.70;;
73168;SDS011;61379;59.732;30.468;2023-02-15T06:29:10;8.60;;;7.60;;
73168;SDS011;61379;59.732;30.468;2023-02-15T06:31:37;9.85;;;7.65;;
73168;SDS011;61379;59.732;30.468;2023-02-15T06:34:04;8.32;;;7.60;;
73168;SDS011;61379;59.732;30.468;2023-02-15T06:36:31;9.35;;;8.43;;
73168;SDS011;61379;59.732;30.468;2023-02-15T06:38:57;8.40;;;7.65;;
73168;SDS011;61379;59.732;30.468;2023-02-15T06:41:24;9.10;;;8.23;;
73168;SDS011;61379;59.732;30.468;2023-02-15T06:43:51;8.43;;;7.57;;
73168;SDS011;61379;59.732;30.468;2023-02-15T06:46:19;7.82;;;7.15;;
73168;SDS011;61379;59.732;30.468;2023-02-15T06:48:46;8.32;;;6.82;;
73168;SDS011;61379;59.732;30.468;2023-02-15T06:51:13;8.23;;;7.10;;
73168;SDS011;61379;59.732;30.468;2023-02-15T06:53:40;9.13;;;7.25;;
73168;SDS011;61379;59.732;30.468;2023-02-15T06:56:08;9.20;;;7.13;;
73168;SDS011;61379;59.732;30.468;2023-02-15T06:58:35;7.65;;;7.05;;
73168;SDS011;61379;59.732;30.468;2023-02-15T07:01:02;7.95;;;7.25;;
73168;SDS011;61379;59.732;30.468;2023-02-15T07:03:30;8.30;;;6.75;;
73168;SDS011;61379;59.732;30.468;2023-02-15T07:05:58;9.38;;;7.35;;
73168;SDS011;61379;59.732;30.468;2023-02-15T07:08:25;10.85;;;7.57;;
73168;SDS011;61379;59.732;30.468;2023-02-15T07:10:52;10.80;;;8.15;;
73168;SDS011;61379;59.732;30.468;2023-02-15T07:13:20;9.63;;;7.22;;
73168;SDS011;61379;59.732;30.468;2023-02-15T07:15:46;7.53;;;6.88;;
73168;SDS011;61379;59.732;30.468;2023-02-15T07:18:13;8.40;;;7.30;;
73168;SDS011;61379;59.732;30.468;2023-02-15T07:20:41;14.23;;;8.23;;
73168;SDS011;61379;59.732;30.468;2023-02-15T07:23:08;7.65;;;6.95;;
73168;SDS011;61379;59.732;30.468;2023-02-15T07:25:35;7.57;;;6.88;;
73168;SDS011;61379;59.732;30.468;2023-02-15T07:28:02;8.25;;;7.40;;
73168;SDS011;61379;59.732;30.468;2023-02-15T07:30:30;12.25;;;8.20;;
73168;SDS011;61379;59.732;30.468;2023-02-15T07:32:57;8.32;;;7.63;;
73168;SDS011;61379;59.732;30.468;2023-02-15T07:35:47;9.07;;;7.88;;
73168;SDS011;61379;59.732;30.468;2023-02-15T07:38:14;9.43;;;7.88;;
73168;SDS011;61379;59.732;30.468;2023-02-15T07:40:41;9.98;;;8.73;;
73168;SDS011;61379;59.732;30.468;2023-02-15T07:43:07;8.40;;;7.70;;
73168;SDS011;61379;59.732;30.468;2023-02-15T07:45:34;9.23;;;7.53;;
73168;SDS011;61379;59.732;30.468;2023-02-15T07:48:01;9.30;;;8.38;;
73168;SDS011;61379;59.732;30.468;2023-02-15T07:50:28;9.60;;;8.57;;
73168;SDS011;61379;59.732;30.468;2023-02-15T07:52:56;8.43;;;7.72;;
73168;SDS011;61379;59.732;30.468;2023-02-15T07:55:23;8.57;;;7.72;;
73168;SDS011;61379;59.732;30.468;2023-02-15T07:57:50;9.13;;;8.02;;
73168;SDS011;61379;59.732;30.468;2023-02-15T08:00:19;8.68;;;7.90;;
73168;SDS011;61379;59.732;30.468;2023-02-15T08:02:48;8.52;;;7.68;;
73168;SDS011;61379;59.732;30.468;2023-02-15T08:05:36;7.43;;;6.82;;
73168;SDS011;61379;59.732;30.468;2023-02-15T08:08:04;10.45;;;8.05;;
73168;SDS011;61379;59.732;30.468;2023-02-15T08:10:31;7.65;;;6.93;;
73168;SDS011;61379;59.732;30.468;2023-02-15T08:13:15;8.25;;;7.47;;
73168;SDS011;61379;59.732;30.468;2023-02-15T08:15:47;8.93;;;7.10;;
73168;SDS011;61379;59.732;30.468;2023-02-15T08:18:14;7.80;;;7.03;;
73168;SDS011;61379;59.732;30.468;2023-02-15T08:20:41;8.10;;;7.22;;
73168;SDS011;61379;59.732;30.468;2023-02-15T08:23:09;13.18;;;8.35;;
73168;SDS011;61379;59.732;30.468;2023-02-15T08:25:35;8.30;;;7.60;;
73168;SDS011;61379;59.732;30.468;2023-02-15T08:28:02;15.40;;;8.35;;
73168;SDS011;61379;59.732;30.468;2023-02-15T08:30:29;8.68;;;7.32;;
73168;SDS011;61379;59.732;30.468;2023-02-15T08:32:56;10.88;;;7.65;;
73168;SDS011;61379;59.732;30.468;2023-02-15T08:35:23;9.90;;;7.72;;
73168;SDS011;61379;59.732;30.468;2023-02-15T08:37:50;9.98;;;7.63;;
73168;SDS011;61379;59.732;30.468;2023-02-15T08:40:19;12.48;;;8.10;;
73168;SDS011;61379;59.732;30.468;2023-02-15T08:42:45;12.45;;;8.15;;
73168;SDS011;61379;59.732;30.468;2023-02-15T08:45:12;9.73;;;7.68;;
73168;SDS011;61379;59.732;30.468;2023-02-15T08:47:39;11.30;;;7.95;;
73168;SDS011;61379;59.732;30.468;2023-02-15T08:50:06;9.40;;;7.63;;
73168;SDS011;61379;59.732;30.468;2023-02-15T08:52:32;9.40;;;7.47;;
73168;SDS011;61379;59.732;30.468;2023-02-15T08:54:59;13.63;;;8.30;;
73168;SDS011;61379;59.732;30.468;2023-02-15T08:57:28;9.15;;;7.75;;
73168;SDS011;61379;59.732;30.468;2023-02-15T08:59:54;12.98;;;8.63;;
73168;SDS011;61379;59.732;30.468;2023-02-15T09:02:21;8.98;;;7.70;;
73168;SDS011;61379;59.732;30.468;2023-02-15T09:04:48;10.02;;;8.25;;
73168;SDS011;61379;59.732;30.468;2023-02-15T09:07:14;13.77;;;8.68;;
73168;SDS011;61379;59.732;30.468;2023-02-15T09:09:43;13.32;;;9.52;;
73168;SDS011;61379;59.732;30.468;2023-02-15T09:12:10;11.40;;;8.38;;
73168;SDS011;61379;59.732;30.468;2023-02-15T09:14:38;11.55;;;8.15;;
73168;SDS011;61379;59.732;30.468;2023-02-15T09:17:05;10.82;;;7.85;;
73168;SDS011;61379;59.732;30.468;2023-02-15T09:19:32;10.27;;;7.45;;
73168;SDS011;61379;59.732;30.468;2023-02-15T09:21:59;10.85;;;7.90;;
73168;SDS011;61379;59.732;30.468;2023-02-15T09:24:25;9.18;;;8.13;;
73168;SDS011;61379;59.732;30.468;2023-02-15T09:26:52;10.20;;;7.78;;
73168;SDS011;61379;59.732;30.468;2023-02-15T09:29:19;9.68;;;8.20;;
73168;SDS011;61379;59.732;30.468;2023-02-15T09:31:48;9.95;;;7.50;;
73168;SDS011;61379;59.732;30.468;2023-02-15T09:34:15;9.30;;;8.20;;
73168;SDS011;61379;59.732;30.468;2023-02-15T09:36:42;14.05;;;8.38;;
73168;SDS011;61379;59.732;30.468;2023-02-15T09:39:10;12.23;;;7.78;;
73168;SDS011;61379;59.732;30.468;2023-02-15T09:44:21;10.05;;;7.60;;
73168;SDS011;61379;59.732;30.468;2023-02-15T09:46:57;9.02;;;7.90;;
73168;SDS011;61379;59.732;30.468;2023-02-15T09:49:30;9.90;;;7.80;;
73168;SDS011;61379;59.732;30.468;2023-02-15T09:52:06;13.93;;;8.57;;
73168;SDS011;61379;59.732;30.468;2023-02-15T09:54:43;10.05;;;7.75;;
73168;SDS011;61379;59.732;30.468;2023-02-15T09:57:14;10.68;;;8.20;;
73168;SDS011;61379;59.732;30.468;2023-02-15T09:59:50;8.52;;;7.82;;
73168;SDS011;61379;59.732;30.468;2023-02-15T10:02:24;11.65;;;8.07;;
73168;SDS011;61379;59.732;30.468;2023-02-15T10:04:56;14.05;;;7.75;;
73168;SDS011;61379;59.732;30.468;2023-02-15T10:07:30;9.10;;;7.30;;
73168;SDS011;61379;59.732;30.468;2023-02-15T10:10:03;6.95;;;6.35;;
73168;SDS011;61379;59.732;30.468;2023-02-15T10:12:48;8.88;;;7.43;;
73168;SDS011;61379;59.732;30.468;2023-02-15T10:15:18;10.93;;;7.68;;
73168;SDS011;61379;59.732;30.468;2023-02-15T10:17:54;8.52;;;6.68;;
73168;SDS011;61379;59.732;30.468;2023-02-15T10:20:23;7.15;;;6.55;;
73168;SDS011;61379;59.732;30.468;2023-02-15T10:23:02;8.77;;;6.78;;
73168;SDS011;61379;59.732;30.468;2023-02-15T10:25:37;7.38;;;6.78;;
73168;SDS011;61379;59.732;30.468;2023-02-15T10:28:06;7.82;;;7.13;;
73168;SDS011;61379;59.732;30.468;2023-02-15T10:30:37;8.43;;;6.90;;
73168;SDS011;61379;59.732;30.468;2023-02-15T10:33:09;7.22;;;6.05;;
73168;SDS011;61379;59.732;30.468;2023-02-15T10:35:42;7.80;;;6.82;;
73168;SDS011;61379;59.732;30.468;2023-02-15T10:38:19;8.68;;;7.03;;
73168;SDS011;61379;59.732;30.468;2023-02-15T10:40:51;8.38;;;7.07;;
73168;SDS011;61379;59.732;30.468;2023-02-15T10:43:25;13.68;;;8.98;;
73168;SDS011;61379;59.732;30.468;2023-02-15T10:45:56;10.32;;;7.13;;
73168;SDS011;61379;59.732;30.468;2023-02-15T10:50:53;12.07;;;7.07;;
73168;SDS011;61379;59.732;30.468;2023-02-15T10:55:50;7.90;;;7.10;;
73168;SDS011;61379;59.732;30.468;2023-02-15T10:58:22;7.78;;;7.07;;
73168;SDS011;61379;59.732;30.468;2023-02-15T11:00:52;10.93;;;7.82;;
73168;SDS011;61379;59.732;30.468;2023-02-15T11:03:29;7.28;;;6.35;;
73168;SDS011;61379;59.732;30.468;2023-02-15T11:06:04;7.13;;;6.13;;
73168;SDS011;61379;59.732;30.468;2023-02-15T11:08:32;7.90;;;6.82;;
73168;SDS011;61379;59.732;30.468;2023-02-15T11:11:00;6.53;;;6.00;;
73168;SDS011;61379;59.732;30.468;2023-02-15T11:13:31;7.90;;;6.82;;
73168;SDS011;61379;59.732;30.468;2023-02-15T11:16:00;7.05;;;6.35;;
73168;SDS011;61379;59.732;30.468;2023-02-15T11:18:28;9.50;;;7.07;;
73168;SDS011;61379;59.732;30.468;2023-02-15T11:20:58;8.00;;;6.75;;
73168;SDS011;61379;59.732;30.468;2023-02-15T11:23:29;8.02;;;7.25;;
73168;SDS011;61379;59.732;30.468;2023-02-15T11:25:57;10.13;;;6.80;;
73168;SDS011;61379;59.732;30.468;2023-02-15T11:28:25;7.95;;;6.65;;
73168;SDS011;61379;59.732;30.468;2023-02-15T11:30:55;8.30;;;6.45;;
73168;SDS011;61379;59.732;30.468;2023-02-15T11:33:23;8.25;;;6.85;;
73168;SDS011;61379;59.732;30.468;2023-02-15T11:35:53;7.35;;;6.20;;
73168;SDS011;61379;59.732;30.468;2023-02-15T11:38:21;7.13;;;6.43;;
73168;SDS011;61379;59.732;30.468;2023-02-15T11:40:51;7.20;;;6.45;;
73168;SDS011;61379;59.732;30.468;2023-02-15T11:43:22;6.82;;;6.10;;
73168;SDS011;61379;59.732;30.468;2023-02-15T11:45:50;7.57;;;6.78;;
73168;SDS011;61379;59.732;30.468;2023-02-15T11:48:17;9.13;;;6.55;;
73168;SDS011;61379;59.732;30.468;2023-02-15T11:50:44;7.28;;;6.57;;
73168;SDS011;61379;59.732;30.468;2023-02-15T11:53:11;7.90;;;7.03;;
73168;SDS011;61379;59.732;30.468;2023-02-15T11:55:38;7.50;;;5.68;;
73168;SDS011;61379;59.732;30.468;2023-02-15T11:58:08;8.27;;;6.85;;
73168;SDS011;61379;59.732;30.468;2023-02-15T12:00:37;7.72;;;7.03;;
73168;SDS011;61379;59.732;30.468;2023-02-15T12:03:09;7.28;;;6.60;;
73168;SDS011;61379;59.732;30.468;2023-02-15T12:05:39;7.45;;;6.50;;
73168;SDS011;61379;59.732;30.468;2023-02-15T12:08:10;8.00;;;6.15;;
73168;SDS011;61379;59.732;30.468;2023-02-15T12:10:40;8.02;;;7.03;;
73168;SDS011;61379;59.732;30.468;2023-02-15T12:13:10;6.53;;;5.90;;
73168;SDS011;61379;59.732;30.468;2023-02-15T12:15:37;7.18;;;6.50;;
73168;SDS011;61379;59.732;30.468;2023-02-15T12:18:04;6.13;;;5.63;;
73168;SDS011;61379;59.732;30.468;2023-02-15T12:20:32;9.15;;;6.35;;
73168;SDS011;61379;59.732;30.468;2023-02-15T12:23:02;7.18;;;6.45;;
73168;SDS011;61379;59.732;30.468;2023-02-15T12:25:32;11.60;;;6.25;;
73168;SDS011;61379;59.732;30.468;2023-02-15T12:27:59;5.82;;;5.32;;
73168;SDS011;61379;59.732;30.468;2023-02-15T12:30:29;8.00;;;6.28;;
73168;SDS011;61379;59.732;30.468;2023-02-15T12:32:59;6.10;;;5.50;;
73168;SDS011;61379;59.732;30.468;2023-02-15T12:35:30;7.25;;;5.28;;
73168;SDS011;61379;59.732;30.468;2023-02-15T12:38:00;9.15;;;6.43;;
73168;SDS011;61379;59.732;30.468;2023-02-15T12:40:28;8.63;;;7.05;;
73168;SDS011;61379;59.732;30.468;2023-02-15T12:42:55;6.47;;;5.53;;
73168;SDS011;61379;59.732;30.468;2023-02-15T12:45:24;7.40;;;5.65;;
73168;SDS011;61379;59.732;30.468;2023-02-15T12:50:38;5.85;;;5.22;;
73168;SDS011;61379;59.732;30.468;2023-02-15T12:53:06;7.38;;;5.40;;
73168;SDS011;61379;59.732;30.468;2023-02-15T12:55:33;8.18;;;6.28;;
73168;SDS011;61379;59.732;30.468;2023-02-15T12:58:12;6.35;;;5.10;;
73168;SDS011;61379;59.732;30.468;2023-02-15T13:00:43;6.30;;;5.70;;
73168;SDS011;61379;59.732;30.468;2023-02-15T13:03:15;6.28;;;5.68;;
73168;SDS011;61379;59.732;30.468;2023-02-15T13:05:44;6.60;;;5.72;;
73168;SDS011;61379;59.732;30.468;2023-02-15T13:08:14;8.30;;;6.55;;
73168;SDS011;61379;59.732;30.468;2023-02-15T13:10:42;8.93;;;6.05;;
73168;SDS011;61379;59.732;30.468;2023-02-15T13:13:10;6.65;;;5.95;;
73168;SDS011;61379;59.732;30.468;2023-02-15T13:15:38;6.65;;;6.03;;
73168;SDS011;61379;59.732;30.468;2023-02-15T13:18:10;6.65;;;6.05;;
73168;SDS011;61379;59.732;30.468;2023-02-15T13:20:38;6.55;;;5.88;;
73168;SDS011;61379;59.732;30.468;2023-02-15T13:23:13;6.88;;;5.85;;
73168;SDS011;61379;59.732;30.468;2023-02-15T13:25:45;7.30;;;6.63;;
73168;SDS011;61379;59.732;30.468;2023-02-15T13:28:16;7.68;;;6.97;;
73168;SDS011;61379;59.732;30.468;2023-02-15T13:30:43;7.72;;;6.70;;
73168;SDS011;61379;59.732;30.468;2023-02-15T13:33:13;9.95;;;6.82;;
73168;SDS011;61379;59.732;30.468;2023-02-15T13:35:43;11.13;;;7.05;;
73168;SDS011;61379;59.732;30.468;2023-02-15T13:38:15;10.52;;;7.13;;
73168;SDS011;61379;59.732;30.468;2023-02-15T13:40:44;7.20;;;6.50;;
73168;SDS011;61379;59.732;30.468;2023-02-15T13:43:17;9.00;;;7.47;;
73168;SDS011;61379;59.732;30.468;2023-02-15T13:45:51;10.93;;;7.07;;
73168;SDS011;61379;59.732;30.468;2023-02-15T13:48:24;9.60;;;6.95;;
73168;SDS011;61379;59.732;30.468;2023-02-15T13:50:55;7.82;;;6.25;;
73168;SDS011;61379;59.732;30.468;2023-02-15T13:56:12;8.02;;;6.18;;
73168;SDS011;61379;59.732;30.468;2023-02-15T14:01:31;7.50;;;6.80;;
73168;SDS011;61379;59.732;30.468;2023-02-15T14:04:07;7.40;;;6.70;;
73168;SDS011;61379;59.732;30.468;2023-02-15T14:09:22;9.82;;;6.40;;
73168;SDS011;61379;59.732;30.468;2023-02-15T14:11:53;8.40;;;6.18;;
73168;SDS011;61379;59.732;30.468;2023-02-15T14:14:36;7.40;;;6.05;;
73168;SDS011;61379;59.732;30.468;2023-02-15T14:17:10;8.57;;;6.20;;
73168;SDS011;61379;59.732;30.468;2023-02-15T14:19:40;8.35;;;6.35;;
73168;SDS011;61379;59.732;30.468;2023-02-15T14:22:14;6.63;;;5.68;;
73168;SDS011;61379;59.732;30.468;2023-02-15T14:24:46;6.97;;;6.25;;
73168;SDS011;61379;59.732;30.468;2023-02-15T14:27:20;9.80;;;6.88;;
73168;SDS011;61379;59.732;30.468;2023-02-15T14:29:51;7.43;;;6.53;;
73168;SDS011;61379;59.732;30.468;2023-02-15T14:32:21;8.00;;;6.07;;
73168;SDS011;61379;59.732;30.468;2023-02-15T14:34:51;9.93;;;6.57;;
73168;SDS011;61379;59.732;30.468;2023-02-15T14:37:21;6.47;;;5.88;;
73168;SDS011;61379;59.732;30.468;2023-02-15T14:39:51;7.05;;;6.28;;
73168;SDS011;61379;59.732;30.468;2023-02-15T14:42:40;7.35;;;6.75;;
73168;SDS011;61379;59.732;30.468;2023-02-15T14:45:15;9.90;;;7.00;;
73168;SDS011;61379;59.732;30.468;2023-02-15T14:47:44;7.32;;;6.18;;
73168;SDS011;61379;59.732;30.468;2023-02-15T14:55:35;7.43;;;6.15;;
73168;SDS011;61379;59.732;30.468;2023-02-15T14:58:09;7.05;;;6.45;;
73168;SDS011;61379;59.732;30.468;2023-02-15T15:00:37;7.25;;;6.63;;
73168;SDS011;61379;59.732;30.468;2023-02-15T15:03:10;6.75;;;6.20;;
73168;SDS011;61379;59.732;30.468;2023-02-15T15:05:46;8.05;;;7.28;;
73168;SDS011;61379;59.732;30.468;2023-02-15T15:08:21;10.48;;;8.85;;
73168;SDS011;61379;59.732;30.468;2023-02-15T15:10:48;9.93;;;8.93;;
73168;SDS011;61379;59.732;30.468;2023-02-15T15:13:35;15.15;;;10.43;;
73168;SDS011;61379;59.732;30.468;2023-02-15T15:18:56;12.35;;;8.75;;
73168;SDS011;61379;59.732;30.468;2023-02-15T15:29:51;10.15;;;8.32;;
73168;SDS011;61379;59.732;30.468;2023-02-15T15:32:19;11.27;;;9.35;;